Delta Poseidon — SVBF6 — position and weather

sailwx.info

Track history (hours):
 
Tides and Currents Weather Stations Pressure Air Temp Water Temp Dewpoint Dewpoint Depression Visibility Wind Speed Wind Dir Waves Ship Positions

Delta Poseidon

Last reported at 2015-Feb-20 07:32 UTC. Time now 2015-Feb-27 00:33 UTC.
Position N 35°58' W 005°36'.

Length 274 m; draft 11 m.

Type: Tanker. MMSI: 241086000.

Date/timePositionNaut miles runAvg speedWind from/ knotsBaromVisibWave heightAir tempDewpointWater temp
2015-Feb-20 07:32N 35°58' W 005°36'1010.8
2015-Feb-20 06:34N 36°01' W 005°24'1111.0
2015-Feb-20 05:33N 36°03' W 005°11'  
2015-Feb-16 23:12N 36°39' E 013°38'911.7
2015-Feb-16 22:28N 36°37' E 013°48'1111.8
2015-Feb-16 21:33N 36°33' E 014°01'1212.0
2015-Feb-16 20:33N 36°29' E 014°15'1212.0
2015-Feb-16 19:33N 36°25' E 014°29'  
2015-Feb-13 15:33N 35°45' E 032°55'3 0.1
2015-Feb-11 14:16N 35°43' E 032°56'1512.7
2015-Feb-11 13:07N 35°41' E 032°39'  
Track history (hours):
 
Tides and Currents Weather Stations Pressure Air Temp Water Temp Dewpoint Dewpoint Depression Visibility Wind Speed Wind Dir Waves Ship Positions

Delta Poseidon

Last reported at 2015-Feb-20 07:32 UTC. Time now 2015-Feb-27 00:33 UTC.
Position N 35°58' W 005°36'.

Length 274 m; draft 11 m.

Type: Tanker. MMSI: 241086000.

Date/timePositionNaut miles runAvg speedWind from/ knotsBaromVisibWave heightAir tempDewpointWater temp
2015-Feb-20 07:32N 35°58' W 005°36'1010.8
2015-Feb-20 06:34N 36°01' W 005°24'1111.0
2015-Feb-20 05:33N 36°03' W 005°11'  
2015-Feb-16 23:12N 36°39' E 013°38'911.7
2015-Feb-16 22:28N 36°37' E 013°48'1111.8
2015-Feb-16 21:33N 36°33' E 014°01'1212.0
2015-Feb-16 20:33N 36°29' E 014°15'1212.0
2015-Feb-16 19:33N 36°25' E 014°29'  
2015-Feb-13 15:33N 35°45' E 032°55'3 0.1
2015-Feb-11 14:16N 35°43' E 032°56'1512.7
2015-Feb-11 13:07N 35°41' E 032°39'  

Dump ship's entire track history